sensor_id;sensor_type;location;lat;lon;timestamp;P1;durP1;ratioP1;P2;durP2;ratioP2
11663;SDS011;72375;59.302;18.204;2024-02-15T00:00:40;5.20;;;2.10;;
11663;SDS011;72375;59.302;18.204;2024-02-15T00:03:28;7.27;;;2.23;;
11663;SDS011;72375;59.302;18.204;2024-02-15T00:06:13;5.93;;;2.30;;
11663;SDS011;72375;59.302;18.204;2024-02-15T00:08:59;5.03;;;1.80;;
11663;SDS011;72375;59.302;18.204;2024-02-15T00:11:44;5.10;;;2.10;;
11663;SDS011;72375;59.302;18.204;2024-02-15T00:14:30;5.37;;;2.30;;
11663;SDS011;72375;59.302;18.204;2024-02-15T00:17:16;5.03;;;2.00;;
11663;SDS011;72375;59.302;18.204;2024-02-15T00:20:03;3.80;;;2.00;;
11663;SDS011;72375;59.302;18.204;2024-02-15T00:22:52;2.83;;;1.70;;
11663;SDS011;72375;59.302;18.204;2024-02-15T00:25:39;4.63;;;2.13;;
11663;SDS011;72375;59.302;18.204;2024-02-15T00:28:28;4.67;;;1.70;;
11663;SDS011;72375;59.302;18.204;2024-02-15T00:31:14;5.03;;;1.83;;
11663;SDS011;72375;59.302;18.204;2024-02-15T00:34:00;5.43;;;2.20;;
11663;SDS011;72375;59.302;18.204;2024-02-15T00:36:47;6.83;;;2.23;;
11663;SDS011;72375;59.302;18.204;2024-02-15T00:39:33;4.87;;;1.90;;
11663;SDS011;72375;59.302;18.204;2024-02-15T00:42:18;7.07;;;2.13;;
11663;SDS011;72375;59.302;18.204;2024-02-15T00:45:04;7.43;;;2.80;;
11663;SDS011;72375;59.302;18.204;2024-02-15T00:47:51;4.10;;;2.10;;
11663;SDS011;72375;59.302;18.204;2024-02-15T00:50:37;7.27;;;2.57;;
11663;SDS011;72375;59.302;18.204;2024-02-15T00:53:24;4.60;;;2.50;;
11663;SDS011;72375;59.302;18.204;2024-02-15T00:56:10;6.13;;;2.90;;
11663;SDS011;72375;59.302;18.204;2024-02-15T00:58:55;8.10;;;2.77;;
11663;SDS011;72375;59.302;18.204;2024-02-15T01:01:41;5.30;;;2.47;;
11663;SDS011;72375;59.302;18.204;2024-02-15T01:04:27;7.07;;;2.43;;
11663;SDS011;72375;59.302;18.204;2024-02-15T01:07:13;8.80;;;2.83;;
11663;SDS011;72375;59.302;18.204;2024-02-15T01:10:00;8.90;;;2.73;;
11663;SDS011;72375;59.302;18.204;2024-02-15T01:12:47;7.17;;;2.60;;
11663;SDS011;72375;59.302;18.204;2024-02-15T01:15:32;7.73;;;3.00;;
11663;SDS011;72375;59.302;18.204;2024-02-15T01:18:21;8.13;;;3.00;;
11663;SDS011;72375;59.302;18.204;2024-02-15T01:21:06;4.53;;;2.53;;
11663;SDS011;72375;59.302;18.204;2024-02-15T01:23:53;13.30;;;3.47;;
11663;SDS011;72375;59.302;18.204;2024-02-15T01:26:40;6.57;;;2.50;;
11663;SDS011;72375;59.302;18.204;2024-02-15T01:29:25;5.57;;;2.60;;
11663;SDS011;72375;59.302;18.204;2024-02-15T01:32:11;5.63;;;2.53;;
11663;SDS011;72375;59.302;18.204;2024-02-15T01:34:56;8.47;;;2.67;;
11663;SDS011;72375;59.302;18.204;2024-02-15T01:37:42;5.13;;;2.70;;
11663;SDS011;72375;59.302;18.204;2024-02-15T01:40:28;4.93;;;2.43;;
11663;SDS011;72375;59.302;18.204;2024-02-15T01:43:15;8.47;;;2.70;;
11663;SDS011;72375;59.302;18.204;2024-02-15T01:46:01;6.10;;;2.57;;
11663;SDS011;72375;59.302;18.204;2024-02-15T01:48:52;4.57;;;3.00;;
11663;SDS011;72375;59.302;18.204;2024-02-15T01:51:39;5.60;;;2.90;;
11663;SDS011;72375;59.302;18.204;2024-02-15T01:54:27;7.40;;;2.93;;
11663;SDS011;72375;59.302;18.204;2024-02-15T01:57:13;5.80;;;3.10;;
11663;SDS011;72375;59.302;18.204;2024-02-15T02:00:00;5.00;;;2.90;;
11663;SDS011;72375;59.302;18.204;2024-02-15T02:02:46;5.73;;;2.80;;
11663;SDS011;72375;59.302;18.204;2024-02-15T02:05:32;7.10;;;3.63;;
11663;SDS011;72375;59.302;18.204;2024-02-15T02:08:18;4.47;;;2.93;;
11663;SDS011;72375;59.302;18.204;2024-02-15T02:11:04;4.20;;;2.73;;
11663;SDS011;72375;59.302;18.204;2024-02-15T02:13:49;5.07;;;2.67;;
11663;SDS011;72375;59.302;18.204;2024-02-15T02:16:37;5.43;;;2.80;;
11663;SDS011;72375;59.302;18.204;2024-02-15T02:19:23;4.47;;;2.50;;
11663;SDS011;72375;59.302;18.204;2024-02-15T02:22:09;4.80;;;2.87;;
11663;SDS011;72375;59.302;18.204;2024-02-15T02:24:58;4.30;;;2.57;;
11663;SDS011;72375;59.302;18.204;2024-02-15T02:27:46;4.47;;;2.83;;
11663;SDS011;72375;59.302;18.204;2024-02-15T02:30:33;5.53;;;2.97;;
11663;SDS011;72375;59.302;18.204;2024-02-15T02:33:19;5.43;;;3.00;;
11663;SDS011;72375;59.302;18.204;2024-02-15T02:36:05;4.30;;;2.73;;
11663;SDS011;72375;59.302;18.204;2024-02-15T02:38:53;5.43;;;2.60;;
11663;SDS011;72375;59.302;18.204;2024-02-15T02:41:40;5.93;;;3.57;;
11663;SDS011;72375;59.302;18.204;2024-02-15T02:44:26;5.57;;;2.93;;
11663;SDS011;72375;59.302;18.204;2024-02-15T02:47:12;6.10;;;3.20;;
11663;SDS011;72375;59.302;18.204;2024-02-15T02:49:57;6.43;;;3.70;;
11663;SDS011;72375;59.302;18.204;2024-02-15T02:52:43;5.63;;;3.27;;
11663;SDS011;72375;59.302;18.204;2024-02-15T02:55:29;4.57;;;2.63;;
11663;SDS011;72375;59.302;18.204;2024-02-15T02:58:16;4.27;;;2.80;;
11663;SDS011;72375;59.302;18.204;2024-02-15T03:01:01;3.80;;;2.63;;
11663;SDS011;72375;59.302;18.204;2024-02-15T03:03:47;3.93;;;2.60;;
11663;SDS011;72375;59.302;18.204;2024-02-15T03:06:33;4.73;;;2.77;;
11663;SDS011;72375;59.302;18.204;2024-02-15T03:09:18;4.23;;;2.80;;
11663;SDS011;72375;59.302;18.204;2024-02-15T03:12:04;4.07;;;2.50;;
11663;SDS011;72375;59.302;18.204;2024-02-15T03:14:51;4.10;;;2.63;;
11663;SDS011;72375;59.302;18.204;2024-02-15T03:17:39;4.87;;;3.33;;
11663;SDS011;72375;59.302;18.204;2024-02-15T03:20:25;4.57;;;2.63;;
11663;SDS011;72375;59.302;18.204;2024-02-15T03:23:10;3.77;;;2.47;;
11663;SDS011;72375;59.302;18.204;2024-02-15T03:25:56;3.63;;;2.60;;
11663;SDS011;72375;59.302;18.204;2024-02-15T03:28:42;3.37;;;2.80;;
11663;SDS011;72375;59.302;18.204;2024-02-15T03:31:30;2.57;;;1.97;;
11663;SDS011;72375;59.302;18.204;2024-02-15T03:34:15;3.17;;;2.30;;
11663;SDS011;72375;59.302;18.204;2024-02-15T03:37:01;3.33;;;2.37;;
11663;SDS011;72375;59.302;18.204;2024-02-15T03:39:48;3.50;;;2.27;;
11663;SDS011;72375;59.302;18.204;2024-02-15T03:42:34;4.10;;;2.60;;
11663;SDS011;72375;59.302;18.204;2024-02-15T03:45:20;3.70;;;2.60;;
11663;SDS011;72375;59.302;18.204;2024-02-15T03:48:10;4.63;;;2.90;;
11663;SDS011;72375;59.302;18.204;2024-02-15T03:50:55;3.53;;;2.30;;
11663;SDS011;72375;59.302;18.204;2024-02-15T03:53:42;3.53;;;2.27;;
11663;SDS011;72375;59.302;18.204;2024-02-15T03:56:28;5.23;;;2.87;;
11663;SDS011;72375;59.302;18.204;2024-02-15T03:59:16;3.13;;;2.27;;
11663;SDS011;72375;59.302;18.204;2024-02-15T04:02:03;3.20;;;2.23;;
11663;SDS011;72375;59.302;18.204;2024-02-15T04:04:51;4.27;;;2.60;;
11663;SDS011;72375;59.302;18.204;2024-02-15T04:07:38;3.00;;;2.10;;
11663;SDS011;72375;59.302;18.204;2024-02-15T04:10:24;3.27;;;2.37;;
11663;SDS011;72375;59.302;18.204;2024-02-15T04:13:09;3.33;;;2.53;;
11663;SDS011;72375;59.302;18.204;2024-02-15T04:15:55;3.80;;;2.93;;
11663;SDS011;72375;59.302;18.204;2024-02-15T04:18:40;3.90;;;2.20;;
11663;SDS011;72375;59.302;18.204;2024-02-15T04:21:30;3.43;;;2.50;;
11663;SDS011;72375;59.302;18.204;2024-02-15T04:24:16;4.07;;;2.60;;
11663;SDS011;72375;59.302;18.204;2024-02-15T04:27:02;4.10;;;2.60;;
11663;SDS011;72375;59.302;18.204;2024-02-15T04:29:47;5.13;;;3.10;;
11663;SDS011;72375;59.302;18.204;2024-02-15T04:32:34;4.30;;;3.13;;
11663;SDS011;72375;59.302;18.204;2024-02-15T04:35:20;4.73;;;2.83;;
11663;SDS011;72375;59.302;18.204;2024-02-15T04:38:07;4.17;;;2.73;;
11663;SDS011;72375;59.302;18.204;2024-02-15T04:40:53;3.83;;;2.80;;
11663;SDS011;72375;59.302;18.204;2024-02-15T04:43:39;3.13;;;2.40;;
11663;SDS011;72375;59.302;18.204;2024-02-15T04:46:28;3.67;;;2.57;;
11663;SDS011;72375;59.302;18.204;2024-02-15T04:49:14;3.50;;;2.50;;
11663;SDS011;72375;59.302;18.204;2024-02-15T04:51:59;4.20;;;2.73;;
11663;SDS011;72375;59.302;18.204;2024-02-15T04:54:48;3.17;;;2.67;;
11663;SDS011;72375;59.302;18.204;2024-02-15T04:57:33;3.80;;;2.50;;
11663;SDS011;72375;59.302;18.204;2024-02-15T05:00:21;3.47;;;2.63;;
11663;SDS011;72375;59.302;18.204;2024-02-15T05:03:09;3.70;;;2.57;;
11663;SDS011;72375;59.302;18.204;2024-02-15T05:05:55;3.57;;;2.37;;
11663;SDS011;72375;59.302;18.204;2024-02-15T05:08:41;3.83;;;2.83;;
11663;SDS011;72375;59.302;18.204;2024-02-15T05:11:28;3.73;;;2.80;;
11663;SDS011;72375;59.302;18.204;2024-02-15T05:14:13;4.30;;;2.93;;
11663;SDS011;72375;59.302;18.204;2024-02-15T05:17:02;4.20;;;2.93;;
11663;SDS011;72375;59.302;18.204;2024-02-15T05:19:48;3.87;;;2.80;;
11663;SDS011;72375;59.302;18.204;2024-02-15T05:22:34;4.23;;;2.80;;
11663;SDS011;72375;59.302;18.204;2024-02-15T05:25:22;4.13;;;2.80;;
11663;SDS011;72375;59.302;18.204;2024-02-15T05:28:11;4.50;;;2.57;;
11663;SDS011;72375;59.302;18.204;2024-02-15T05:31:10;5.33;;;3.60;;
11663;SDS011;72375;59.302;18.204;2024-02-15T05:33:58;4.53;;;3.37;;
11663;SDS011;72375;59.302;18.204;2024-02-15T05:36:43;4.33;;;3.00;;
11663;SDS011;72375;59.302;18.204;2024-02-15T05:39:29;5.73;;;3.53;;
11663;SDS011;72375;59.302;18.204;2024-02-15T05:42:15;4.83;;;3.10;;
11663;SDS011;72375;59.302;18.204;2024-02-15T05:45:27;3.80;;;2.60;;
11663;SDS011;72375;59.302;18.204;2024-02-15T05:48:16;3.83;;;2.73;;
11663;SDS011;72375;59.302;18.204;2024-02-15T05:51:01;4.83;;;3.27;;
11663;SDS011;72375;59.302;18.204;2024-02-15T05:53:47;4.70;;;3.17;;
11663;SDS011;72375;59.302;18.204;2024-02-15T05:56:34;4.00;;;3.13;;
11663;SDS011;72375;59.302;18.204;2024-02-15T05:59:19;3.90;;;2.93;;
11663;SDS011;72375;59.302;18.204;2024-02-15T06:02:06;3.83;;;2.67;;
11663;SDS011;72375;59.302;18.204;2024-02-15T06:04:52;3.50;;;2.43;;
11663;SDS011;72375;59.302;18.204;2024-02-15T06:07:44;3.53;;;2.63;;
11663;SDS011;72375;59.302;18.204;2024-02-15T06:10:31;3.53;;;2.47;;
11663;SDS011;72375;59.302;18.204;2024-02-15T06:13:16;4.20;;;2.70;;
11663;SDS011;72375;59.302;18.204;2024-02-15T06:16:02;4.03;;;2.60;;
11663;SDS011;72375;59.302;18.204;2024-02-15T06:18:54;3.23;;;2.33;;
11663;SDS011;72375;59.302;18.204;2024-02-15T06:21:39;4.57;;;2.87;;
11663;SDS011;72375;59.302;18.204;2024-02-15T06:24:25;3.60;;;2.50;;
11663;SDS011;72375;59.302;18.204;2024-02-15T06:27:12;4.03;;;2.87;;
11663;SDS011;72375;59.302;18.204;2024-02-15T06:29:59;3.00;;;2.30;;
11663;SDS011;72375;59.302;18.204;2024-02-15T06:33:02;2.47;;;2.10;;
11663;SDS011;72375;59.302;18.204;2024-02-15T06:36:08;3.80;;;2.47;;
11663;SDS011;72375;59.302;18.204;2024-02-15T06:39:08;4.07;;;2.63;;
11663;SDS011;72375;59.302;18.204;2024-02-15T06:42:11;3.27;;;2.50;;
11663;SDS011;72375;59.302;18.204;2024-02-15T06:44:59;4.17;;;2.63;;
11663;SDS011;72375;59.302;18.204;2024-02-15T06:47:45;3.03;;;2.27;;
11663;SDS011;72375;59.302;18.204;2024-02-15T06:50:31;3.87;;;2.40;;
11663;SDS011;72375;59.302;18.204;2024-02-15T06:53:18;3.23;;;2.43;;
11663;SDS011;72375;59.302;18.204;2024-02-15T06:56:04;3.13;;;2.47;;
11663;SDS011;72375;59.302;18.204;2024-02-15T06:58:50;3.90;;;2.53;;
11663;SDS011;72375;59.302;18.204;2024-02-15T07:01:36;4.23;;;2.40;;
11663;SDS011;72375;59.302;18.204;2024-02-15T07:04:22;4.27;;;2.80;;
11663;SDS011;72375;59.302;18.204;2024-02-15T07:07:09;4.03;;;2.70;;
11663;SDS011;72375;59.302;18.204;2024-02-15T07:09:56;3.83;;;2.80;;
11663;SDS011;72375;59.302;18.204;2024-02-15T07:12:42;4.47;;;3.00;;
11663;SDS011;72375;59.302;18.204;2024-02-15T07:15:28;3.87;;;2.90;;
11663;SDS011;72375;59.302;18.204;2024-02-15T07:18:15;4.63;;;2.93;;
11663;SDS011;72375;59.302;18.204;2024-02-15T07:21:04;4.20;;;2.90;;
11663;SDS011;72375;59.302;18.204;2024-02-15T07:23:54;4.57;;;3.10;;
11663;SDS011;72375;59.302;18.204;2024-02-15T07:26:41;4.37;;;2.93;;
11663;SDS011;72375;59.302;18.204;2024-02-15T07:29:28;5.33;;;3.50;;
11663;SDS011;72375;59.302;18.204;2024-02-15T07:32:15;5.97;;;3.27;;
11663;SDS011;72375;59.302;18.204;2024-02-15T07:35:00;4.40;;;2.67;;
11663;SDS011;72375;59.302;18.204;2024-02-15T07:37:53;6.97;;;3.60;;
11663;SDS011;72375;59.302;18.204;2024-02-15T07:40:42;5.07;;;3.37;;
11663;SDS011;72375;59.302;18.204;2024-02-15T07:43:29;4.60;;;3.47;;
11663;SDS011;72375;59.302;18.204;2024-02-15T07:46:17;5.73;;;3.70;;
11663;SDS011;72375;59.302;18.204;2024-02-15T07:49:02;5.87;;;4.10;;
11663;SDS011;72375;59.302;18.204;2024-02-15T07:51:49;6.70;;;3.97;;
11663;SDS011;72375;59.302;18.204;2024-02-15T07:54:36;6.90;;;4.10;;
11663;SDS011;72375;59.302;18.204;2024-02-15T07:57:22;8.07;;;4.80;;
11663;SDS011;72375;59.302;18.204;2024-02-15T08:00:10;6.57;;;3.57;;
11663;SDS011;72375;59.302;18.204;2024-02-15T08:02:59;6.23;;;3.97;;
11663;SDS011;72375;59.302;18.204;2024-02-15T08:05:45;6.00;;;4.13;;
11663;SDS011;72375;59.302;18.204;2024-02-15T08:08:31;6.93;;;4.80;;
11663;SDS011;72375;59.302;18.204;2024-02-15T08:11:18;7.13;;;4.83;;
11663;SDS011;72375;59.302;18.204;2024-02-15T08:14:04;8.23;;;5.30;;
11663;SDS011;72375;59.302;18.204;2024-02-15T08:16:53;8.23;;;5.53;;
11663;SDS011;72375;59.302;18.204;2024-02-15T08:19:39;7.97;;;5.10;;
11663;SDS011;72375;59.302;18.204;2024-02-15T08:22:26;8.37;;;5.23;;
11663;SDS011;72375;59.302;18.204;2024-02-15T08:25:14;8.63;;;5.50;;
11663;SDS011;72375;59.302;18.204;2024-02-15T08:28:01;7.73;;;5.30;;
11663;SDS011;72375;59.302;18.204;2024-02-15T08:30:49;7.27;;;5.53;;
11663;SDS011;72375;59.302;18.204;2024-02-15T08:33:38;7.93;;;5.67;;
11663;SDS011;72375;59.302;18.204;2024-02-15T08:36:24;7.80;;;5.07;;
11663;SDS011;72375;59.302;18.204;2024-02-15T08:39:10;8.53;;;5.67;;
11663;SDS011;72375;59.302;18.204;2024-02-15T08:41:55;8.63;;;6.00;;
11663;SDS011;72375;59.302;18.204;2024-02-15T08:44:42;9.07;;;5.80;;
11663;SDS011;72375;59.302;18.204;2024-02-15T08:47:28;8.70;;;6.27;;
11663;SDS011;72375;59.302;18.204;2024-02-15T08:50:15;7.63;;;5.37;;
11663;SDS011;72375;59.302;18.204;2024-02-15T08:53:01;8.43;;;5.70;;
11663;SDS011;72375;59.302;18.204;2024-02-15T08:55:49;8.60;;;5.90;;
11663;SDS011;72375;59.302;18.204;2024-02-15T08:58:36;6.93;;;5.43;;
11663;SDS011;72375;59.302;18.204;2024-02-15T09:01:22;8.83;;;6.50;;
11663;SDS011;72375;59.302;18.204;2024-02-15T09:04:08;11.63;;;6.00;;
11663;SDS011;72375;59.302;18.204;2024-02-15T09:06:55;7.73;;;5.13;;
11663;SDS011;72375;59.302;18.204;2024-02-15T09:09:40;7.30;;;5.67;;
11663;SDS011;72375;59.302;18.204;2024-02-15T09:12:26;8.57;;;5.60;;
11663;SDS011;72375;59.302;18.204;2024-02-15T09:15:12;8.30;;;5.53;;
11663;SDS011;72375;59.302;18.204;2024-02-15T09:17:58;7.60;;;5.00;;
11663;SDS011;72375;59.302;18.204;2024-02-15T09:20:43;7.03;;;4.83;;
11663;SDS011;72375;59.302;18.204;2024-02-15T09:23:34;6.13;;;4.73;;
11663;SDS011;72375;59.302;18.204;2024-02-15T09:26:20;6.17;;;4.83;;
11663;SDS011;72375;59.302;18.204;2024-02-15T09:29:06;5.73;;;4.73;;
11663;SDS011;72375;59.302;18.204;2024-02-15T09:31:52;6.13;;;4.67;;
11663;SDS011;72375;59.302;18.204;2024-02-15T09:34:38;5.80;;;4.10;;
11663;SDS011;72375;59.302;18.204;2024-02-15T09:37:24;6.17;;;4.90;;
11663;SDS011;72375;59.302;18.204;2024-02-15T09:40:13;6.20;;;4.97;;
11663;SDS011;72375;59.302;18.204;2024-02-15T09:42:59;5.53;;;4.50;;
11663;SDS011;72375;59.302;18.204;2024-02-15T09:45:46;6.43;;;4.77;;
11663;SDS011;72375;59.302;18.204;2024-02-15T09:48:32;5.40;;;4.73;;
11663;SDS011;72375;59.302;18.204;2024-02-15T09:51:20;6.90;;;5.27;;
11663;SDS011;72375;59.302;18.204;2024-02-15T09:54:07;6.90;;;4.77;;
11663;SDS011;72375;59.302;18.204;2024-02-15T09:56:54;5.40;;;4.47;;
11663;SDS011;72375;59.302;18.204;2024-02-15T09:59:41;5.63;;;4.53;;
11663;SDS011;72375;59.302;18.204;2024-02-15T10:02:28;6.03;;;4.53;;
11663;SDS011;72375;59.302;18.204;2024-02-15T10:05:14;5.90;;;4.33;;
11663;SDS011;72375;59.302;18.204;2024-02-15T10:08:00;5.80;;;4.47;;
11663;SDS011;72375;59.302;18.204;2024-02-15T10:10:47;6.23;;;4.97;;
11663;SDS011;72375;59.302;18.204;2024-02-15T10:13:51;5.97;;;4.70;;
11663;SDS011;72375;59.302;18.204;2024-02-15T10:16:37;5.20;;;4.03;;
11663;SDS011;72375;59.302;18.204;2024-02-15T10:19:23;6.27;;;4.67;;
11663;SDS011;72375;59.302;18.204;2024-02-15T10:22:09;5.47;;;4.50;;
11663;SDS011;72375;59.302;18.204;2024-02-15T10:25:10;5.73;;;4.60;;
11663;SDS011;72375;59.302;18.204;2024-02-15T10:28:01;6.40;;;4.73;;
11663;SDS011;72375;59.302;18.204;2024-02-15T10:30:48;5.67;;;4.70;;
11663;SDS011;72375;59.302;18.204;2024-02-15T10:33:36;6.63;;;5.07;;
11663;SDS011;72375;59.302;18.204;2024-02-15T10:36:23;6.00;;;4.73;;
11663;SDS011;72375;59.302;18.204;2024-02-15T10:39:10;6.40;;;4.83;;
11663;SDS011;72375;59.302;18.204;2024-02-15T10:42:00;6.30;;;5.27;;
11663;SDS011;72375;59.302;18.204;2024-02-15T10:44:46;6.73;;;5.33;;
11663;SDS011;72375;59.302;18.204;2024-02-15T10:47:34;6.77;;;5.33;;
11663;SDS011;72375;59.302;18.204;2024-02-15T10:50:22;7.17;;;5.60;;
11663;SDS011;72375;59.302;18.204;2024-02-15T10:53:10;5.43;;;4.53;;
11663;SDS011;72375;59.302;18.204;2024-02-15T10:56:07;7.23;;;5.13;;
11663;SDS011;72375;59.302;18.204;2024-02-15T10:59:04;5.97;;;4.77;;
11663;SDS011;72375;59.302;18.204;2024-02-15T11:01:58;6.80;;;5.30;;
11663;SDS011;72375;59.302;18.204;2024-02-15T11:04:51;7.13;;;5.60;;
11663;SDS011;72375;59.302;18.204;2024-02-15T11:07:40;7.97;;;5.40;;
11663;SDS011;72375;59.302;18.204;2024-02-15T11:10:25;6.27;;;5.30;;
11663;SDS011;72375;59.302;18.204;2024-02-15T11:13:11;7.37;;;5.57;;
11663;SDS011;72375;59.302;18.204;2024-02-15T11:15:58;6.70;;;5.77;;
11663;SDS011;72375;59.302;18.204;2024-02-15T11:18:45;7.47;;;5.63;;
11663;SDS011;72375;59.302;18.204;2024-02-15T11:24:45;6.97;;;5.70;;
11663;SDS011;72375;59.302;18.204;2024-02-15T11:27:32;7.80;;;5.80;;
11663;SDS011;72375;59.302;18.204;2024-02-15T11:30:31;7.87;;;5.70;;
11663;SDS011;72375;59.302;18.204;2024-02-15T11:33:25;7.77;;;5.93;;
11663;SDS011;72375;59.302;18.204;2024-02-15T11:36:12;7.87;;;6.03;;
11663;SDS011;72375;59.302;18.204;2024-02-15T11:39:02;9.07;;;6.17;;
11663;SDS011;72375;59.302;18.204;2024-02-15T11:42:28;7.83;;;6.00;;
11663;SDS011;72375;59.302;18.204;2024-02-15T11:45:13;8.67;;;5.97;;
11663;SDS011;72375;59.302;18.204;2024-02-15T11:48:02;9.00;;;6.80;;
11663;SDS011;72375;59.302;18.204;2024-02-15T11:50:54;7.70;;;5.87;;
11663;SDS011;72375;59.302;18.204;2024-02-15T11:53:40;8.97;;;6.30;;
11663;SDS011;72375;59.302;18.204;2024-02-15T11:56:27;10.27;;;6.70;;
11663;SDS011;72375;59.302;18.204;2024-02-15T11:59:12;8.57;;;6.37;;
11663;SDS011;72375;59.302;18.204;2024-02-15T12:02:12;8.63;;;6.53;;
11663;SDS011;72375;59.302;18.204;2024-02-15T12:05:15;8.90;;;6.53;;
11663;SDS011;72375;59.302;18.204;2024-02-15T12:08:19;8.80;;;6.60;;
11663;SDS011;72375;59.302;18.204;2024-02-15T12:11:23;7.87;;;5.87;;
11663;SDS011;72375;59.302;18.204;2024-02-15T12:14:27;8.20;;;6.20;;
11663;SDS011;72375;59.302;18.204;2024-02-15T12:17:31;7.40;;;5.80;;
11663;SDS011;72375;59.302;18.204;2024-02-15T12:20:30;8.27;;;6.00;;
11663;SDS011;72375;59.302;18.204;2024-02-15T12:23:15;7.00;;;5.67;;
11663;SDS011;72375;59.302;18.204;2024-02-15T12:26:02;8.07;;;5.80;;
11663;SDS011;72375;59.302;18.204;2024-02-15T12:28:51;9.07;;;6.17;;
11663;SDS011;72375;59.302;18.204;2024-02-15T12:31:39;7.90;;;6.30;;
11663;SDS011;72375;59.302;18.204;2024-02-15T12:34:25;7.93;;;6.13;;
11663;SDS011;72375;59.302;18.204;2024-02-15T12:37:11;7.63;;;5.53;;
11663;SDS011;72375;59.302;18.204;2024-02-15T12:39:58;8.37;;;5.37;;
11663;SDS011;72375;59.302;18.204;2024-02-15T12:42:59;7.37;;;5.57;;
11663;SDS011;72375;59.302;18.204;2024-02-15T12:45:45;7.97;;;5.67;;
11663;SDS011;72375;59.302;18.204;2024-02-15T12:48:32;7.80;;;6.23;;
11663;SDS011;72375;59.302;18.204;2024-02-15T12:51:19;9.03;;;6.27;;
11663;SDS011;72375;59.302;18.204;2024-02-15T12:54:08;8.90;;;6.47;;
11663;SDS011;72375;59.302;18.204;2024-02-15T12:56:58;7.87;;;5.87;;
11663;SDS011;72375;59.302;18.204;2024-02-15T12:59:53;8.40;;;5.90;;
11663;SDS011;72375;59.302;18.204;2024-02-15T13:02:38;7.10;;;6.00;;
11663;SDS011;72375;59.302;18.204;2024-02-15T13:05:26;8.23;;;6.63;;
11663;SDS011;72375;59.302;18.204;2024-02-15T13:08:12;8.80;;;6.40;;
11663;SDS011;72375;59.302;18.204;2024-02-15T13:10:57;8.23;;;5.70;;
11663;SDS011;72375;59.302;18.204;2024-02-15T13:13:43;8.53;;;6.67;;
11663;SDS011;72375;59.302;18.204;2024-02-15T13:16:29;7.07;;;5.57;;
11663;SDS011;72375;59.302;18.204;2024-02-15T13:19:14;8.43;;;5.97;;
11663;SDS011;72375;59.302;18.204;2024-02-15T13:22:02;8.03;;;6.17;;
11663;SDS011;72375;59.302;18.204;2024-02-15T13:24:47;7.73;;;6.07;;
11663;SDS011;72375;59.302;18.204;2024-02-15T13:27:33;7.33;;;5.97;;
11663;SDS011;72375;59.302;18.204;2024-02-15T13:30:20;7.57;;;6.33;;
11663;SDS011;72375;59.302;18.204;2024-02-15T13:33:07;8.10;;;6.27;;
11663;SDS011;72375;59.302;18.204;2024-02-15T13:35:52;6.50;;;5.27;;
11663;SDS011;72375;59.302;18.204;2024-02-15T13:38:39;7.20;;;5.33;;
11663;SDS011;72375;59.302;18.204;2024-02-15T13:41:25;8.17;;;6.03;;
11663;SDS011;72375;59.302;18.204;2024-02-15T13:44:11;6.67;;;5.40;;
11663;SDS011;72375;59.302;18.204;2024-02-15T13:46:58;7.00;;;5.80;;
11663;SDS011;72375;59.302;18.204;2024-02-15T13:49:44;7.07;;;5.43;;
11663;SDS011;72375;59.302;18.204;2024-02-15T13:52:29;6.17;;;4.57;;
11663;SDS011;72375;59.302;18.204;2024-02-15T13:55:17;7.20;;;5.67;;
11663;SDS011;72375;59.302;18.204;2024-02-15T13:58:04;7.43;;;5.20;;
11663;SDS011;72375;59.302;18.204;2024-02-15T14:00:51;8.23;;;5.50;;
11663;SDS011;72375;59.302;18.204;2024-02-15T14:03:37;7.40;;;5.40;;
11663;SDS011;72375;59.302;18.204;2024-02-15T14:06:23;8.10;;;5.40;;
11663;SDS011;72375;59.302;18.204;2024-02-15T14:09:08;6.97;;;5.77;;
11663;SDS011;72375;59.302;18.204;2024-02-15T14:11:56;6.93;;;5.23;;
11663;SDS011;72375;59.302;18.204;2024-02-15T14:14:41;7.33;;;5.67;;
11663;SDS011;72375;59.302;18.204;2024-02-15T14:17:28;6.53;;;4.90;;
11663;SDS011;72375;59.302;18.204;2024-02-15T14:20:13;6.73;;;5.17;;
11663;SDS011;72375;59.302;18.204;2024-02-15T14:22:59;8.87;;;6.13;;
11663;SDS011;72375;59.302;18.204;2024-02-15T14:25:49;10.17;;;6.40;;
11663;SDS011;72375;59.302;18.204;2024-02-15T14:28:38;8.70;;;6.23;;
11663;SDS011;72375;59.302;18.204;2024-02-15T14:31:25;7.77;;;5.57;;
11663;SDS011;72375;59.302;18.204;2024-02-15T14:34:28;7.50;;;5.27;;
11663;SDS011;72375;59.302;18.204;2024-02-15T14:37:14;9.87;;;6.57;;
11663;SDS011;72375;59.302;18.204;2024-02-15T14:40:00;8.83;;;6.00;;
11663;SDS011;72375;59.302;18.204;2024-02-15T14:42:47;9.37;;;6.07;;
11663;SDS011;72375;59.302;18.204;2024-02-15T14:45:34;8.50;;;6.20;;
11663;SDS011;72375;59.302;18.204;2024-02-15T14:48:20;10.07;;;6.70;;
11663;SDS011;72375;59.302;18.204;2024-02-15T14:51:08;10.10;;;6.53;;
11663;SDS011;72375;59.302;18.204;2024-02-15T14:53:54;10.03;;;6.87;;
11663;SDS011;72375;59.302;18.204;2024-02-15T14:56:39;9.50;;;7.07;;
11663;SDS011;72375;59.302;18.204;2024-02-15T14:59:26;10.03;;;6.80;;
11663;SDS011;72375;59.302;18.204;2024-02-15T15:02:13;9.43;;;6.40;;
11663;SDS011;72375;59.302;18.204;2024-02-15T15:04:58;11.47;;;7.60;;
11663;SDS011;72375;59.302;18.204;2024-02-15T15:07:58;11.57;;;7.57;;
11663;SDS011;72375;59.302;18.204;2024-02-15T15:11:01;13.90;;;8.80;;
11663;SDS011;72375;59.302;18.204;2024-02-15T15:14:04;12.27;;;7.63;;
11663;SDS011;72375;59.302;18.204;2024-02-15T15:16:50;10.87;;;7.30;;
11663;SDS011;72375;59.302;18.204;2024-02-15T15:19:37;11.70;;;7.97;;
11663;SDS011;72375;59.302;18.204;2024-02-15T15:22:23;12.27;;;8.43;;
11663;SDS011;72375;59.302;18.204;2024-02-15T15:25:09;12.07;;;7.73;;
11663;SDS011;72375;59.302;18.204;2024-02-15T15:27:55;11.90;;;7.53;;
11663;SDS011;72375;59.302;18.204;2024-02-15T15:30:41;12.30;;;7.80;;
11663;SDS011;72375;59.302;18.204;2024-02-15T15:33:32;12.87;;;8.13;;
11663;SDS011;72375;59.302;18.204;2024-02-15T15:36:19;11.90;;;7.63;;
11663;SDS011;72375;59.302;18.204;2024-02-15T15:39:05;13.50;;;8.67;;
11663;SDS011;72375;59.302;18.204;2024-02-15T15:41:53;12.97;;;7.90;;
11663;SDS011;72375;59.302;18.204;2024-02-15T15:44:38;13.27;;;8.60;;
11663;SDS011;72375;59.302;18.204;2024-02-15T15:47:24;13.57;;;8.27;;
11663;SDS011;72375;59.302;18.204;2024-02-15T15:50:10;13.73;;;8.60;;
11663;SDS011;72375;59.302;18.204;2024-02-15T15:52:57;12.53;;;7.53;;
11663;SDS011;72375;59.302;18.204;2024-02-15T15:55:43;12.60;;;7.97;;
11663;SDS011;72375;59.302;18.204;2024-02-15T15:58:28;14.57;;;8.00;;
11663;SDS011;72375;59.302;18.204;2024-02-15T16:01:14;12.30;;;7.53;;
11663;SDS011;72375;59.302;18.204;2024-02-15T16:04:01;12.83;;;7.70;;
11663;SDS011;72375;59.302;18.204;2024-02-15T16:06:46;11.43;;;7.60;;
11663;SDS011;72375;59.302;18.204;2024-02-15T16:09:33;14.07;;;7.40;;
11663;SDS011;72375;59.302;18.204;2024-02-15T16:12:19;11.23;;;7.60;;
11663;SDS011;72375;59.302;18.204;2024-02-15T16:15:05;11.93;;;7.73;;
11663;SDS011;72375;59.302;18.204;2024-02-15T16:17:52;11.93;;;8.10;;
11663;SDS011;72375;59.302;18.204;2024-02-15T16:20:38;11.73;;;8.37;;
11663;SDS011;72375;59.302;18.204;2024-02-15T16:23:24;13.20;;;8.57;;
11663;SDS011;72375;59.302;18.204;2024-02-15T16:26:11;11.90;;;7.63;;
11663;SDS011;72375;59.302;18.204;2024-02-15T16:28:57;13.30;;;8.40;;
11663;SDS011;72375;59.302;18.204;2024-02-15T16:31:42;12.17;;;7.70;;
11663;SDS011;72375;59.302;18.204;2024-02-15T16:34:30;13.27;;;8.80;;
11663;SDS011;72375;59.302;18.204;2024-02-15T16:37:16;13.77;;;9.10;;